Terminal Aerodrome Forecast
Issued by NWS

Home | Current Version | Previous Version | Text Only | Print | Product List | Glossary On
Versions: 1 2 3 4 5 6 7 8 9 10 11 12 13 14 15 16
000
FTUS42 KMLB 041727
TAFSUA
TAF
KSUA 041727Z 0418/0518 00000KT P6SM VCTS SCT035CB
     FM042000 11010KT P6SM SCT035 BKN060
     FM050000 14005KT P6SM SCT040 OVC100
     FM050400 18003KT P6SM SCT120 BKN250=

USA.gov is the U.S. government's official web portal to all federal, state and local government web resources and services.